Arteixo, Spain
Current Conditions -  °F | °C
As of 11:30 PM on Friday 19 Dec 2014 (Local Time) from LECO Reporting Station
Broken Clouds Broken Clouds  
Wind Chill: 52°   Ceiling: 1200
Heat Index: 52°   Visibility: 5mi
Dew Point: 50°   Wind: 6mph
Humidity: 94%   Direction: 150°SSE
Pressure: 30.53"   Gusts: NA
Location:  43.3°N, 8.51°W
Report Text: LECO 192230Z 15005KT 110V190 8000 BKN012 11/10 Q1034 TEMPO 3000 DZ BKN012
Loading
Personal Weather Stations






























Interactive Weather Map New forecast layout! Learn more

10-Day Weather Forecast

Advertisements
Track Severe Weather on mobile